Time;durP1;ratioP1;P1;durP2;ratioP2;P2;SDS_P1;SDS_P2;PMS_P1;PMS_P2;Temp;Humidity;BMP_temperature;BMP_pressure;BME280_temperature;BME280_humidity;BME280_pressure;Samples;Min_cycle;Max_cycle;Signal;HPM_P1;HPM_P2
2022/06/20 00:02:20;;;;;;;7.53;3.45;;;;;;;16.86;100.00;100340.19;5206671;28;20487;-75
2022/06/20 00:04:53;;;;;;;5.03;2.97;;;;;;;16.66;100.00;100366.16;5210415;28;20021;-74
2022/06/20 00:07:23;;;;;;;6.97;2.83;;;;;;;16.62;100.00;100378.72;5209567;28;20285;-74
2022/06/20 00:09:54;;;;;;;5.18;3.08;;;;;;;16.57;100.00;100398.44;5210316;28;20036;-75
2022/06/20 00:12:26;;;;;;;7.25;3.50;;;;;;;16.45;100.00;100405.31;5207520;28;20025;-74
2022/06/20 00:14:59;;;;;;;4.97;2.90;;;;;;;16.34;100.00;100410.38;5209032;28;20387;-75
2022/06/20 00:17:30;;;;;;;6.05;3.30;;;;;;;16.51;100.00;100397.00;5204172;28;20033;-73
2022/06/20 00:20:01;;;;;;;6.32;3.17;;;;;;;16.64;100.00;100368.06;5207893;28;20029;-74
2022/06/20 00:22:31;;;;;;;5.88;3.20;;;;;;;16.58;100.00;100366.66;5211029;28;20033;-74
2022/06/20 00:25:02;;;;;;;7.75;3.30;;;;;;;16.40;100.00;100336.16;5209911;28;20030;-75
2022/06/20 00:27:32;;;;;;;5.78;3.05;;;;;;;16.48;100.00;100317.19;5205470;28;20025;-75
2022/06/20 00:30:04;;;;;;;5.70;3.15;;;;;;;16.56;100.00;100325.50;5200315;28;20475;-74
2022/06/20 00:32:34;;;;;;;6.65;3.20;;;;;;;16.43;100.00;100346.53;5189622;28;20037;-74
2022/06/20 00:35:05;;;;;;;7.05;3.13;;;;;;;16.73;100.00;100413.19;5209843;28;20021;-74
2022/06/20 00:37:36;;;;;;;7.97;3.20;;;;;;;16.64;100.00;100434.91;5207588;28;20022;-74
2022/06/20 00:40:21;;;;;;;6.45;3.40;;;;;;;16.48;100.00;100433.28;5209835;28;20395;-74
2022/06/20 00:42:52;;;;;;;9.43;3.53;;;;;;;16.41;100.00;100432.81;5207390;28;20028;-74
2022/06/20 00:45:25;;;;;;;7.00;3.38;;;;;;;16.57;100.00;100432.72;5213117;28;20024;-75
2022/06/20 00:48:01;;;;;;;6.32;3.63;;;;;;;16.41;100.00;100401.16;5214237;28;20025;-74
2022/06/20 00:50:33;;;;;;;9.25;3.40;;;;;;;16.59;100.00;100394.72;5212791;28;20036;-74
2022/06/20 00:53:22;;;;;;;7.40;3.28;;;;;;;16.59;100.00;100397.38;5215680;28;20502;-76
2022/06/20 00:55:59;;;;;;;8.65;3.50;;;;;;;16.33;100.00;100387.56;5196014;28;20108;-75
2022/06/20 00:58:42;;;;;;;8.00;3.40;;;;;;;16.41;100.00;100373.94;5211305;28;20108;-75
2022/06/20 01:01:15;;;;;;;6.90;3.50;;;;;;;16.18;100.00;100356.88;5200703;28;20060;-74
2022/06/20 01:03:51;;;;;;;6.97;3.92;;;;;;;15.97;100.00;100337.09;5214497;28;20029;-74
2022/06/20 01:06:31;;;;;;;6.63;3.70;;;;;;;15.99;100.00;100329.94;5209704;28;20501;-74
2022/06/20 01:09:08;;;;;;;9.65;4.18;;;;;;;16.04;100.00;100312.03;5211094;28;20036;-75
2022/06/20 01:11:48;;;;;;;7.53;3.60;;;;;;;16.15;100.00;100325.41;5215695;28;20155;-75
2022/06/20 01:14:28;;;;;;;6.32;3.80;;;;;;;16.15;100.00;100335.97;5209976;28;20112;-75
2022/06/20 01:16:58;;;;;;;7.15;3.58;;;;;;;16.20;100.00;100301.41;5212990;28;20056;-75
2022/06/20 01:19:58;;;;;;;6.10;3.22;;;;;;;16.09;100.00;100273.09;5211439;28;20038;-75
2022/06/20 01:22:56;;;;;;;6.13;3.67;;;;;;;15.89;100.00;100281.34;5194758;28;20037;-74
2022/06/20 01:25:39;;;;;;;5.75;3.13;;;;;;;15.90;100.00;100282.22;5212511;28;20087;-74
2022/06/20 01:28:12;;;;;;;6.93;3.30;;;;;;;15.89;100.00;100270.81;5207340;28;20209;-74
2022/06/20 01:30:44;;;;;;;8.07;3.70;;;;;;;15.83;100.00;100278.25;5202760;28;20075;-74
2022/06/20 01:33:19;;;;;;;7.88;3.75;;;;;;;15.93;100.00;100260.94;5211932;28;20071;-72
2022/06/20 01:38:42;;;;;;;5.03;3.47;;;;;;;15.83;100.00;100244.84;5195920;28;20091;-75
2022/06/20 01:44:05;;;;;;;5.95;2.85;;;;;;;15.94;100.00;100252.94;5214895;28;20041;-74
2022/06/20 01:46:35;;;;;;;7.38;3.65;;;;;;;15.95;100.00;100262.53;5210775;28;20021;-72
2022/06/20 01:49:12;;;;;;;7.90;3.60;;;;;;;16.05;100.00;100247.00;5196529;28;20025;-75
2022/06/20 01:51:49;;;;;;;10.38;3.55;;;;;;;16.42;100.00;100238.47;5210618;28;20389;-75
2022/06/20 01:54:22;;;;;;;7.68;3.45;;;;;;;16.48;100.00;100238.91;5208908;28;20021;-75
2022/06/20 01:56:53;;;;;;;8.10;3.15;;;;;;;16.53;100.00;100247.38;5191197;28;20553;-74
2022/06/20 01:59:35;;;;;;;5.93;3.20;;;;;;;16.45;100.00;100252.31;5206788;28;20036;-74
2022/06/20 02:02:06;;;;;;;7.55;3.42;;;;;;;16.14;100.00;100241.13;5206612;28;20028;-75
2022/06/20 02:04:37;;;;;;;6.70;3.80;;;;;;;15.97;100.00;100241.34;5214382;28;20017;-75
2022/06/20 02:07:10;;;;;;;7.68;3.63;;;;;;;15.97;100.00;100252.75;5210091;28;20483;-75
2022/06/20 02:09:41;;;;;;;7.47;3.50;;;;;;;16.24;100.00;100266.81;5206660;28;20049;-75
2022/06/20 02:12:15;;;;;;;7.00;3.65;;;;;;;16.45;100.00;100275.19;5195932;28;20041;-75
2022/06/20 02:14:55;;;;;;;5.60;3.25;;;;;;;16.45;100.00;100291.03;5211585;28;20044;-74
2022/06/20 02:17:46;;;;;;;8.10;3.60;;;;;;;16.56;100.00;100272.72;5210920;28;20029;-75
2022/06/20 02:20:21;;;;;;;6.90;3.80;;;;;;;16.54;100.00;100280.72;5199592;28;20033;-74
2022/06/20 02:22:53;;;;;;;6.60;3.75;;;;;;;16.45;100.00;100278.69;5212674;28;20383;-75
2022/06/20 02:25:30;;;;;;;7.07;3.85;;;;;;;16.54;100.00;100293.91;5212213;28;20109;-73
2022/06/20 02:28:10;;;;;;;6.60;3.83;;;;;;;16.45;100.00;100296.28;5210890;28;20025;-75
2022/06/20 02:30:41;;;;;;;7.47;3.85;;;;;;;16.51;100.00;100280.06;5202057;28;20022;-75
2022/06/20 02:33:22;;;;;;;8.35;4.25;;;;;;;16.48;100.00;100259.16;5192488;28;20041;-76
2022/06/20 02:35:54;;;;;;;7.10;3.85;;;;;;;16.15;100.00;100246.31;5212349;28;20029;-74
2022/06/20 02:38:25;;;;;;;6.03;3.78;;;;;;;16.08;100.00;100242.34;5212909;28;20033;-74
2022/06/20 02:40:57;;;;;;;9.60;4.35;;;;;;;15.95;100.00;100217.72;5211206;28;20044;-74
2022/06/20 02:43:42;;;;;;;6.15;3.72;;;;;;;15.53;100.00;100178.25;5212956;28;20033;-75
2022/06/20 02:46:18;;;;;;;9.07;4.38;;;;;;;15.12;100.00;100160.63;5192320;28;20033;-75
2022/06/20 02:48:50;;;;;;;;;;;;;;;15.32;100.00;100190.09;5212132;28;20064;-75
2022/06/20 02:51:27;;;;;;;6.97;4.38;;;;;;;15.78;100.00;100219.72;5212076;28;19913;-74
2022/06/20 02:54:01;;;;;;;9.80;4.55;;;;;;;16.00;100.00;100225.31;5212467;28;20513;-74
2022/06/20 02:56:42;;;;;;;7.90;4.45;;;;;;;16.09;100.00;100215.06;5210193;28;20114;-72
2022/06/20 02:59:20;;;;;;;7.55;4.30;;;;;;;15.99;100.00;100203.41;5201773;28;20033;-75
2022/06/20 03:02:02;;;;;;;11.57;4.78;;;;;;;16.03;100.00;100201.44;5208298;28;20029;-74
2022/06/20 03:04:36;;;;;;;7.05;4.18;;;;;;;15.84;100.00;100225.47;5209862;28;20072;-74
2022/06/20 03:07:12;;;;;;;7.82;4.30;;;;;;;15.84;100.00;100246.53;5211613;28;20462;-74
2022/06/20 03:09:46;;;;;;;13.15;4.78;;;;;;;15.89;100.00;100262.91;5212970;28;20393;-75
2022/06/20 03:12:17;;;;;;;10.93;4.60;;;;;;;15.94;100.00;100247.66;5210564;28;20606;-75
2022/06/20 03:14:55;;;;;;;7.95;4.38;;;;;;;15.92;100.00;100241.66;5212527;28;20028;-74
2022/06/20 03:17:26;;;;;;;7.35;4.30;;;;;;;16.08;100.00;100223.06;5210884;28;20690;-75
2022/06/20 03:20:03;;;;;;;8.75;4.60;;;;;;;15.90;100.00;100206.63;5211626;28;20064;-74
2022/06/20 03:22:39;;;;;;;11.75;5.00;;;;;;;15.79;100.00;100210.88;5210021;28;20515;-75
2022/06/20 03:25:13;;;;;;;7.43;4.53;;;;;;;15.72;100.00;100214.84;5205410;28;20029;-75
2022/06/20 03:27:44;;;;;;;9.18;5.05;;;;;;;15.82;100.00;100237.88;5191239;28;20814;-74
2022/06/20 03:30:19;;;;;;;7.15;5.22;;;;;;;15.85;100.00;100269.31;5200856;28;20029;-74
2022/06/20 03:32:50;;;;;;;10.65;4.95;;;;;;;15.84;100.00;100277.34;5205897;28;20447;-74
2022/06/20 03:35:21;;;;;;;9.02;4.80;;;;;;;15.82;100.00;100272.16;5193862;28;20072;-75
2022/06/20 03:37:52;;;;;;;10.85;4.95;;;;;;;15.74;100.00;100292.00;5209848;28;20495;-74
2022/06/20 03:40:22;;;;;;;9.98;5.18;;;;;;;15.75;100.00;100315.66;5210180;28;20541;-74
2022/06/20 03:42:55;;;;;;;8.40;4.72;;;;;;;15.62;100.00;100343.66;5210766;28;20524;-75
2022/06/20 03:45:34;;;;;;;10.73;4.53;;;;;;;15.57;100.00;100374.69;5192698;28;20051;-76
2022/06/20 03:48:14;;;;;;;9.88;5.25;;;;;;;15.58;100.00;100405.38;5211120;28;20426;-75
2022/06/20 03:50:52;;;;;;;8.95;5.40;;;;;;;15.29;100.00;100424.66;5205401;28;20109;-74
2022/06/20 03:53:30;;;;;;;9.90;4.93;;;;;;;15.44;100.00;100418.50;5209589;28;20029;-74
2022/06/20 03:56:17;;;;;;;7.97;5.03;;;;;;;15.31;100.00;100440.34;5211752;28;20406;-75
2022/06/20 03:58:59;;;;;;;12.70;6.32;;;;;;;15.38;100.00;100444.34;5196552;28;20091;-74
2022/06/20 04:01:36;;;;;;;9.80;6.57;;;;;;;15.31;100.00;100443.84;5185855;28;20037;-75
2022/06/20 04:04:15;;;;;;;12.07;6.50;;;;;;;15.31;100.00;100466.66;5208868;28;20036;-74
2022/06/20 04:07:07;;;;;;;13.35;6.88;;;;;;;15.30;100.00;100473.75;5209178;28;20025;-74
2022/06/20 04:12:57;;;;;;;11.13;8.45;;;;;;;15.34;100.00;100495.50;5211426;28;20083;-75
2022/06/20 04:15:39;;;;;;;12.85;7.65;;;;;;;15.18;100.00;100498.09;5193361;28;20048;-74
2022/06/20 04:18:30;;;;;;;11.80;7.20;;;;;;;15.17;100.00;100464.78;5188764;28;20498;-75
2022/06/20 04:21:03;;;;;;;10.13;7.18;;;;;;;15.23;100.00;100439.91;5213646;28;20029;-75
2022/06/20 04:23:54;;;;;;;11.18;7.82;;;;;;;15.14;100.00;100408.81;5213163;28;20104;-74
2022/06/20 04:26:32;;;;;;;9.63;7.30;;;;;;;15.15;100.00;100385.06;5211579;28;20099;-75
2022/06/20 04:29:12;;;;;;;12.73;7.80;;;;;;;15.27;100.00;100365.94;5207139;28;20140;-74
2022/06/20 04:31:50;;;;;;;12.90;7.60;;;;;;;15.20;100.00;100361.09;5203255;28;20052;-75
2022/06/20 04:34:30;;;;;;;10.07;7.43;;;;;;;15.18;100.00;100358.53;5213231;28;20029;-75
2022/06/20 04:37:08;;;;;;;11.00;7.57;;;;;;;15.30;100.00;100344.72;5206299;28;20115;-75
2022/06/20 04:39:48;;;;;;;9.60;6.85;;;;;;;15.39;100.00;100338.88;5190314;28;20104;-75
2022/06/20 04:42:33;;;;;;;15.88;8.27;;;;;;;15.35;100.00;100313.69;5208145;28;20029;-74
2022/06/20 04:45:18;;;;;;;10.00;6.82;;;;;;;15.44;100.00;100299.97;5210812;28;20033;-76
2022/06/20 04:48:12;;;;;;;9.75;6.63;;;;;;;15.43;100.00;100257.91;5209385;28;20044;-75
2022/06/20 04:50:46;;;;;;;10.23;6.68;;;;;;;15.33;100.00;100206.75;5212194;28;20058;-75
2022/06/20 04:53:20;;;;;;;11.05;6.68;;;;;;;15.21;100.00;100170.59;5197423;28;20025;-74
2022/06/20 04:55:53;;;;;;;9.20;6.82;;;;;;;14.77;100.00;100111.06;5213447;28;20657;-74
2022/06/20 04:58:34;;;;;;;9.95;7.20;;;;;;;14.68;100.00;100069.50;5210524;28;20041;-74
2022/06/20 05:01:07;;;;;;;11.48;7.63;;;;;;;14.55;100.00;100066.78;5197731;28;20025;-74
2022/06/20 05:03:43;;;;;;;11.13;7.90;;;;;;;14.61;100.00;100136.59;5215744;28;20025;-75
2022/06/20 05:06:23;;;;;;;11.32;7.47;;;;;;;14.68;100.00;100122.97;5204473;28;20709;-75
2022/06/20 05:09:14;;;;;;;11.65;7.10;;;;;;;14.65;100.00;100091.59;5211967;28;20044;-75
2022/06/20 05:11:49;;;;;;;10.30;7.18;;;;;;;14.51;100.00;100049.50;5201587;28;20025;-73
2022/06/20 05:14:37;;;;;;;9.80;7.28;;;;;;;14.43;100.00;100043.00;5213616;28;20025;-74
2022/06/20 05:17:18;;;;;;;8.70;6.70;;;;;;;14.41;100.00;100079.06;5204660;28;20032;-75
2022/06/20 05:19:53;;;;;;;10.75;7.03;;;;;;;14.67;100.00;100123.06;5202402;28;20052;-76
2022/06/20 05:22:30;;;;;;;9.67;7.13;;;;;;;14.57;100.00;100043.84;5206545;28;20033;-75
2022/06/20 05:25:06;;;;;;;10.00;6.53;;;;;;;14.35;100.00;100090.78;5214080;28;20028;-73
2022/06/20 05:27:45;;;;;;;;;;;;;;;14.50;100.00;100154.75;5212513;28;20440;-74
2022/06/20 05:30:19;;;;;;;9.07;6.72;;;;;;;14.65;100.00;100165.25;5188624;28;20422;-75
2022/06/20 05:32:58;;;;;;;9.27;6.28;;;;;;;14.67;100.00;100167.78;5211535;28;20364;-75
2022/06/20 05:35:52;;;;;;;8.95;6.05;;;;;;;14.73;100.00;100188.47;5215184;28;20036;-73
2022/06/20 05:38:41;;;;;;;8.38;6.00;;;;;;;14.64;100.00;100170.59;5208389;28;20098;-74
2022/06/20 05:41:15;;;;;;;10.35;5.88;;;;;;;14.47;100.00;100129.50;5215137;28;20029;-73
2022/06/20 05:43:45;;;;;;;10.13;6.28;;;;;;;14.57;100.00;100209.53;5212593;28;20090;-74
2022/06/20 05:46:40;;;;;;;7.47;6.20;;;;;;;14.65;100.00;100274.88;5216319;28;20029;-74
2022/06/20 05:49:25;;;;;;;7.00;5.30;;;;;;;14.90;100.00;100287.38;5196686;28;20057;-74
2022/06/20 05:51:58;;;;;;;9.65;6.38;;;;;;;15.11;100.00;100291.41;5193358;28;20044;-74
2022/06/20 05:54:34;;;;;;;6.97;5.80;;;;;;;15.10;100.00;100289.72;5210235;28;20033;-74
2022/06/20 05:57:07;;;;;;;;;;;;;;;15.46;100.00;100276.16;5210556;28;20117;-74
2022/06/20 05:59:47;;;;;;;8.10;5.82;;;;;;;15.55;100.00;100276.44;5201528;28;20290;-74
2022/06/20 06:02:25;;;;;;;8.13;5.70;;;;;;;15.67;100.00;100261.72;5181525;28;20037;-75
2022/06/20 06:05:16;;;;;;;7.68;5.75;;;;;;;15.79;100.00;100253.91;5209966;28;20557;-74
2022/06/20 06:07:57;;;;;;;7.53;5.43;;;;;;;15.89;100.00;100255.00;5202033;28;20486;-73
2022/06/20 06:10:45;;;;;;;8.48;5.90;;;;;;;15.95;100.00;100259.03;5212912;28;20026;-74
2022/06/20 06:13:33;;;;;;;9.68;6.35;;;;;;;15.85;100.00;100252.69;5208474;28;20064;-74
2022/06/20 06:16:46;;;;;;;7.20;5.05;;;;;;;15.55;100.00;100255.38;5194012;28;20017;-74
2022/06/20 06:19:20;;;;;;;9.15;5.50;;;;;;;15.82;100.00;100248.44;5209858;28;20045;-74
2022/06/20 06:21:58;;;;;;;8.73;5.20;;;;;;;15.47;100.00;100259.41;5212347;28;20365;-75
2022/06/20 06:24:29;;;;;;;8.43;5.63;;;;;;;15.45;100.00;100269.19;5211100;28;20116;-74
2022/06/20 06:27:02;;;;;;;7.85;5.85;;;;;;;15.61;100.00;100276.09;5214692;28;20059;-75
2022/06/20 06:29:40;;;;;;;7.90;6.25;;;;;;;15.64;100.00;100291.72;5189842;28;20021;-75
2022/06/20 06:32:23;;;;;;;10.85;6.72;;;;;;;15.56;100.00;100304.50;5184621;28;20021;-74
2022/06/20 06:35:09;;;;;;;11.23;6.63;;;;;;;15.54;100.00;100327.44;5212871;28;20116;-75
2022/06/20 06:38:02;;;;;;;9.30;6.53;;;;;;;15.50;100.00;100330.38;5213380;28;20028;-75
2022/06/20 06:40:51;;;;;;;11.00;6.80;;;;;;;15.52;100.00;100339.88;5212734;28;20029;-76
2022/06/20 06:43:51;;;;;;;12.20;7.18;;;;;;;15.43;100.00;100345.69;5214235;28;20491;-75
2022/06/20 06:46:29;;;;;;;11.52;7.55;;;;;;;15.51;100.00;100350.50;5179537;28;20044;-72
2022/06/20 06:49:17;;;;;;;13.70;8.57;;;;;;;15.61;100.00;100368.31;5212104;28;20056;-75
2022/06/20 06:52:13;;;;;;;12.73;8.63;;;;;;;15.51;100.00;100380.31;5207789;28;20529;-75
2022/06/20 06:54:57;;;;;;;14.83;9.63;;;;;;;15.36;100.00;100391.75;5211018;28;20390;-75
2022/06/20 06:57:44;;;;;;;14.73;9.63;;;;;;;15.32;100.00;100400.75;5212281;28;20055;-74
2022/06/20 07:00:36;;;;;;;11.80;9.45;;;;;;;15.41;100.00;100410.78;5206294;28;20086;-73
2022/06/20 07:03:16;;;;;;;16.40;9.52;;;;;;;15.32;100.00;100415.72;5213953;28;20031;-74
2022/06/20 07:05:59;;;;;;;18.52;10.40;;;;;;;15.09;100.00;100414.38;5214076;28;20068;-74
2022/06/20 07:08:33;;;;;;;14.57;9.52;;;;;;;15.14;100.00;100400.91;5210381;28;20036;-74
2022/06/20 07:11:23;;;;;;;19.93;10.97;;;;;;;15.35;100.00;100400.59;5214307;28;20030;-73
2022/06/20 07:13:58;;;;;;;14.65;9.85;;;;;;;15.49;100.00;100384.84;5189958;28;20511;-74
2022/06/20 07:16:38;;;;;;;15.93;9.85;;;;;;;15.53;100.00;100381.06;5210467;28;20040;-74
2022/06/20 07:19:12;;;;;;;16.02;9.20;;;;;;;15.24;100.00;100376.63;5194484;28;20024;-74
2022/06/20 07:21:43;;;;;;;22.02;9.93;;;;;;;15.46;100.00;100361.31;5205576;28;20081;-73
2022/06/20 07:24:34;;;;;;;18.27;8.23;;;;;;;15.52;100.00;100354.84;5209755;28;20033;-74
2022/06/20 07:27:34;;;;;;;16.90;9.02;;;;;;;15.59;100.00;100335.94;5213399;28;20523;-74
2022/06/20 07:30:12;;;;;;;14.30;7.60;;;;;;;15.56;100.00;100324.72;5205178;28;20086;-74
2022/06/20 07:32:48;;;;;;;14.50;7.65;;;;;;;15.59;100.00;100306.97;5210114;28;20399;-74
2022/06/20 07:35:30;;;;;;;18.08;7.55;;;;;;;15.55;100.00;100318.59;5216386;28;20078;-75
2022/06/20 07:38:16;;;;;;;15.18;7.45;;;;;;;15.61;100.00;100304.22;5207800;28;20041;-74
2022/06/20 07:41:02;;;;;;;14.57;7.72;;;;;;;15.34;100.00;100313.78;5207343;28;20083;-75
2022/06/20 07:43:44;;;;;;;12.02;6.90;;;;;;;15.49;100.00;100303.19;5209554;28;20140;-73
2022/06/20 07:46:22;;;;;;;16.38;7.15;;;;;;;15.29;100.00;100298.25;5205293;28;20029;-73
2022/06/20 07:48:57;;;;;;;13.77;5.63;;;;;;;15.31;100.00;100288.47;5210570;28;20032;-75
2022/06/20 07:51:34;;;;;;;12.02;4.55;;;;;;;15.29;100.00;100294.75;5208168;28;20032;-74
2022/06/20 07:54:10;;;;;;;9.82;4.68;;;;;;;15.15;100.00;100298.19;5208303;28;20022;-75
2022/06/20 07:56:50;;;;;;;9.02;4.47;;;;;;;15.11;100.00;100311.59;5192718;28;20033;-76
2022/06/20 07:59:28;;;;;;;9.82;5.05;;;;;;;15.39;100.00;100312.53;5207301;28;20465;-74
2022/06/20 08:02:03;;;;;;;11.45;4.70;;;;;;;15.35;100.00;100318.94;5184895;28;20614;-75
2022/06/20 08:04:35;;;;;;;11.05;4.38;;;;;;;15.26;100.00;100327.38;5207895;28;20478;-74
2022/06/20 08:07:05;;;;;;;10.02;4.07;;;;;;;15.45;100.00;100342.94;5211623;28;20025;-75
2022/06/20 08:09:45;;;;;;;6.63;2.22;;;;;;;15.09;100.00;100353.81;5191322;28;20118;-75
2022/06/20 08:12:19;;;;;;;5.75;2.08;;;;;;;15.22;100.00;100351.31;5209398;28;20533;-74
2022/06/20 08:15:02;;;;;;;5.80;2.20;;;;;;;15.33;100.00;100362.97;5212916;28;20052;-75
2022/06/20 08:17:33;;;;;;;5.00;1.98;;;;;;;15.32;100.00;100358.63;5212688;28;20026;-75
2022/06/20 08:20:04;;;;;;;7.85;2.53;;;;;;;15.24;100.00;100365.25;5208362;28;20025;-75
2022/06/20 08:22:52;;;;;;;6.20;2.70;;;;;;;15.60;100.00;100369.25;5185659;28;20033;-75
2022/06/20 08:25:27;;;;;;;6.68;2.30;;;;;;;15.50;100.00;100354.91;5203156;28;20703;-76
2022/06/20 08:28:07;;;;;;;8.10;2.17;;;;;;;15.43;100.00;100358.00;5210085;28;20100;-72
2022/06/20 08:30:43;;;;;;;8.88;2.38;;;;;;;15.43;100.00;100347.47;5202279;28;20033;-75
2022/06/20 08:33:36;;;;;;;5.78;2.28;;;;;;;15.34;100.00;100343.59;5187759;28;20091;-74
2022/06/20 08:36:25;;;;;;;7.65;2.13;;;;;;;15.51;100.00;100337.34;5212305;28;20039;-74
2022/06/20 08:39:10;;;;;;;6.10;1.95;;;;;;;15.32;100.00;100353.38;5215452;22;20803;-73
2022/06/20 08:42:02;;;;;;;6.07;2.37;;;;;;;15.45;100.00;100367.53;5210387;28;20406;-73
2022/06/20 08:45:03;;;;;;;6.03;2.17;;;;;;;15.33;100.00;100365.59;5208809;28;20029;-73
2022/06/20 08:48:08;;;;;;;9.50;2.58;;;;;;;15.05;100.00;100375.97;5194091;28;20029;-72
2022/06/20 08:51:07;;;;;;;8.82;2.38;;;;;;;15.33;100.00;100372.66;5199080;28;20021;-74
2022/06/20 08:54:08;;;;;;;7.05;2.42;;;;;;;15.22;100.00;100382.91;5198560;28;20611;-74
2022/06/20 08:57:09;;;;;;;8.35;2.00;;;;;;;15.29;100.00;100398.31;5198740;28;20023;-73
2022/06/20 09:00:00;;;;;;;7.63;2.10;;;;;;;15.19;100.00;100420.78;5188474;28;20032;-74
2022/06/20 09:02:49;;;;;;;8.88;2.13;;;;;;;15.13;100.00;100436.06;5193423;28;20033;-74
2022/06/20 09:05:40;;;;;;;6.55;2.13;;;;;;;14.75;100.00;100431.28;5194854;28;20036;-74
2022/06/20 09:08:35;;;;;;;6.60;2.17;;;;;;;15.09;100.00;100434.56;5174539;28;20045;-74
2022/06/20 09:11:20;;;;;;;5.75;1.80;;;;;;;15.26;100.00;100426.56;5203291;28;20029;-74
2022/06/20 09:14:34;;;;;;;12.45;2.42;;;;;;;15.15;100.00;100416.66;5188972;28;20117;-73
2022/06/20 09:17:21;;;;;;;9.18;2.05;;;;;;;15.19;100.00;100415.53;5190907;28;20035;-73
2022/06/20 09:20:24;;;;;;;13.20;2.40;;;;;;;15.32;100.00;100399.94;5196908;28;20111;-74
2022/06/20 09:23:07;;;;;;;10.68;2.50;;;;;;;15.21;100.00;100402.28;5198840;28;20057;-73
2022/06/20 09:25:50;;;;;;;10.15;2.30;;;;;;;15.37;100.00;100396.06;5202234;28;20670;-74
2022/06/20 09:28:47;;;;;;;11.98;2.70;;;;;;;15.41;100.00;100389.72;5187073;28;20041;-74
2022/06/20 09:31:43;;;;;;;12.20;2.70;;;;;;;15.66;100.00;100395.22;5189013;28;20071;-73
2022/06/20 09:34:29;;;;;;;9.23;2.38;;;;;;;15.22;100.00;100398.72;5194932;28;20033;-73
2022/06/20 09:37:13;;;;;;;12.02;2.78;;;;;;;15.22;100.00;100406.63;5201958;28;20699;-73
2022/06/20 09:40:29;;;;;;;13.52;2.78;;;;;;;15.61;100.00;100407.84;5195239;28;20029;-74
2022/06/20 09:43:18;;;;;;;12.23;2.90;;;;;;;15.47;100.00;100404.28;5178144;28;20652;-74
2022/06/20 09:46:10;;;;;;;11.75;3.30;;;;;;;15.41;100.00;100400.25;5190356;28;20033;-73
2022/06/20 09:48:52;;;;;;;10.02;2.70;;;;;;;15.52;100.00;100404.88;5197770;28;20026;-74
2022/06/20 09:51:41;;;;;;;12.13;3.20;;;;;;;15.55;100.00;100402.91;5201907;28;20045;-73
2022/06/20 09:54:32;;;;;;;11.07;2.95;;;;;;;15.63;100.00;100400.69;5194865;28;20057;-74
2022/06/20 09:57:23;;;;;;;11.35;3.40;;;;;;;15.58;100.00;100402.75;5183923;28;20108;-73
2022/06/20 10:00:04;;;;;;;11.05;3.10;;;;;;;15.76;100.00;100411.34;5186687;28;20052;-74
2022/06/20 10:02:43;;;;;;;14.80;3.20;;;;;;;16.13;100.00;100416.97;5197404;28;20048;-73
2022/06/20 10:05:32;;;;;;;13.50;2.83;;;;;;;16.32;100.00;100396.44;5184612;28;20069;-73
2022/06/20 10:08:21;;;;;;;12.25;2.78;;;;;;;16.13;100.00;100395.88;5194806;28;20029;-73
2022/06/20 10:11:03;;;;;;;8.48;2.58;;;;;;;16.22;100.00;100400.56;5192066;28;20021;-73
2022/06/20 10:13:37;;;;;;;11.23;3.20;;;;;;;16.55;100.00;100393.22;5201198;28;20251;-73
2022/06/20 10:16:22;;;;;;;12.80;2.60;;;;;;;16.58;100.00;100402.75;5201851;28;20043;-73
2022/06/20 10:19:03;;;;;;;13.77;2.70;;;;;;;16.72;100.00;100410.66;5184692;28;20037;-74
2022/06/20 10:21:47;;;;;;;11.05;2.60;;;;;;;16.83;100.00;100407.22;5191158;28;20727;-74
2022/06/20 10:24:44;;;;;;;13.90;3.05;;;;;;;16.84;100.00;100401.00;5169875;28;20461;-74
2022/06/20 10:27:35;;;;;;;11.85;2.80;;;;;;;17.36;100.00;100403.78;5189015;28;20026;-74
2022/06/20 10:30:06;;;;;;;12.30;3.03;;;;;;;17.25;99.08;100409.75;5183514;28;20030;-74
2022/06/20 10:32:54;;;;;;;9.95;2.83;;;;;;;17.43;100.00;100405.94;5187631;28;20025;-73
2022/06/20 10:35:52;;;;;;;11.05;2.83;;;;;;;17.22;100.00;100406.44;5197291;28;20398;-74
2022/06/20 10:38:39;;;;;;;13.15;2.63;;;;;;;17.14;100.00;100403.47;5195713;28;20506;-74
2022/06/20 10:41:20;;;;;;;12.65;2.70;;;;;;;17.22;99.92;100402.03;5193245;28;20099;-74
2022/06/20 10:44:21;;;;;;;13.60;2.75;;;;;;;17.34;100.00;100397.78;5201072;28;20033;-74
2022/06/20 10:46:54;;;;;;;13.75;3.00;;;;;;;17.64;100.00;100398.38;5196347;28;20029;-74
2022/06/20 10:49:40;;;;;;;11.80;2.88;;;;;;;17.62;100.00;100410.84;5189143;28;20033;-73
2022/06/20 10:52:22;;;;;;;14.20;3.00;;;;;;;17.76;100.00;100423.97;5193790;28;20013;-74
2022/06/20 10:54:52;;;;;;;13.35;3.15;;;;;;;17.88;98.33;100429.31;5183612;28;20036;-74
2022/06/20 10:57:32;;;;;;;12.27;2.90;;;;;;;17.86;98.48;100435.63;5201004;28;20029;-73
2022/06/20 11:00:13;;;;;;;9.60;3.15;;;;;;;17.80;100.00;100436.88;5190434;28;20594;-74
2022/06/20 11:02:46;;;;;;;9.88;2.50;;;;;;;17.82;97.21;100439.44;5201224;28;20044;-73
2022/06/20 11:05:19;;;;;;;9.48;2.88;;;;;;;17.80;98.69;100449.28;5200891;28;20056;-74
2022/06/20 11:08:02;;;;;;;7.30;2.60;;;;;;;17.94;99.78;100439.44;5200878;28;20035;-74
2022/06/20 11:10:42;;;;;;;9.25;3.15;;;;;;;17.71;99.15;100441.94;5201040;28;20036;-72
2022/06/20 11:13:15;;;;;;;9.13;3.00;;;;;;;17.67;98.14;100448.41;5193864;28;20101;-73
2022/06/20 11:15:51;;;;;;;12.30;3.05;;;;;;;17.64;99.11;100452.06;5200914;28;20148;-74
2022/06/20 11:19:05;;;;;;;10.70;3.28;;;;;;;17.67;98.14;100448.41;5195481;28;20049;-73
2022/06/20 11:21:48;;;;;;;10.10;3.38;;;;;;;17.77;98.64;100442.38;5195883;28;20394;-73
2022/06/20 11:24:31;;;;;;;7.50;2.78;;;;;;;17.92;100.00;100425.50;5177977;28;20035;-74
2022/06/20 11:27:40;;;;;;;9.95;3.10;;;;;;;17.98;97.70;100424.22;5199600;28;20029;-74
2022/06/20 11:30:32;;;;;;;10.25;3.13;;;;;;;17.84;98.38;100414.56;5184642;28;20036;-73
2022/06/20 11:33:11;;;;;;;9.30;2.97;;;;;;;18.18;98.43;100423.72;5198969;28;20013;-73
2022/06/20 11:35:49;;;;;;;12.38;2.97;;;;;;;18.32;96.82;100419.19;5193281;28;20025;-74
2022/06/20 11:38:25;;;;;;;9.27;2.60;;;;;;;17.88;97.57;100412.56;5200264;28;20032;-73
2022/06/20 11:41:17;;;;;;;9.82;2.58;;;;;;;18.18;95.27;100415.78;5200507;28;20108;-73
2022/06/20 11:44:15;;;;;;;9.63;2.75;;;;;;;18.18;96.74;100406.03;5194829;28;20047;-74
2022/06/20 11:47:13;;;;;;;8.57;2.30;;;;;;;18.24;96.86;100410.03;5183190;28;20033;-74
2022/06/20 11:50:08;;;;;;;9.80;2.72;;;;;;;18.51;96.70;100411.63;5197004;28;20021;-74
2022/06/20 11:53:26;;;;;;;9.38;2.50;;;;;;;18.51;95.46;100413.44;5200329;28;20036;-73
2022/06/20 11:56:10;;;;;;;9.85;2.50;;;;;;;18.32;93.72;100403.31;5188024;28;20042;-74
2022/06/20 11:59:09;;;;;;;9.90;2.30;;;;;;;18.35;94.37;100407.53;5184927;28;20026;-74
2022/06/20 12:02:09;;;;;;;10.38;2.28;;;;;;;18.65;95.95;100397.44;5176083;28;20041;-74
2022/06/20 12:04:49;;;;;;;7.50;2.20;;;;;;;19.22;95.66;100396.72;5192817;28;20552;-73
2022/06/20 12:07:43;;;;;;;8.75;2.03;;;;;;;18.72;96.49;100396.88;5184113;28;20040;-74
2022/06/20 12:10:42;;;;;;;6.45;1.90;;;;;;;19.26;93.26;100401.69;5172449;28;20124;-74
2022/06/20 12:13:49;;;;;;;8.35;2.20;;;;;;;20.02;91.82;100392.34;5192322;28;20032;-74
2022/06/20 12:16:31;;;;;;;7.43;1.92;;;;;;;19.67;91.05;100385.34;5188998;28;20021;-73
2022/06/20 12:25:33;;;;;;;5.72;1.40;;;;;;;20.15;83.48;100390.41;5200485;28;20033;-74
2022/06/20 12:28:19;;;;;;;7.95;1.70;;;;;;;20.30;78.78;100391.88;5165887;28;20579;-73
2022/06/20 12:30:53;;;;;;;;;;;;;;;20.02;78.93;100399.44;5187567;28;20116;-74
2022/06/20 12:33:24;;;;;;;;;;;;;;;20.09;81.01;100401.50;5182438;28;20558;-73
2022/06/20 12:35:56;;;;;;;;;;;;;;;19.77;76.28;100403.09;5200547;28;20000;-73
2022/06/20 12:38:35;;;;;;;;;;;;;;;19.50;78.71;100402.53;5195315;28;20382;-71